NKS1215 KFLL-KMCO
Flight info
| Callsign | NKS1215 |
|---|---|
| Flight time | 0h 34m |
| Altitude | 23000 |
| Route | FRSBE2 WAPOM MUNGI1 |
| Aircraft | A320/M-VGDW/C |
Departure
| Time | 2026-05-03 23:36 |
|---|---|
| Airport | Fort Lauderdale Hollywood International Airport (KFLL) |
Arrival
| Time | 2026-05-04 00:11 |
|---|---|
| Airport | Orlando International Airport (KMCO) |
| Time | Latitude | Longitude | Altitude | Speed | Heading |
|---|---|---|---|---|---|
| 2026-05-03 22:52 | 26.06888 | -80.14515 | 37 ft | 0 kts | 4° |
| 2026-05-03 22:57 | 26.06887 | -80.14515 | 37 ft | 2 kts | 4° |
| 2026-05-03 22:58 | 26.06861 | -80.14516 | 35 ft | 4 kts | 359° |
| 2026-05-03 22:58 | 26.06834 | -80.14514 | 37 ft | 4 kts | 344° |
| 2026-05-03 22:58 | 26.06815 | -80.14502 | 40 ft | 4 kts | 275° |
| 2026-05-03 22:58 | 26.06814 | -80.14496 | 40 ft | 1 kts | 251° |
| 2026-05-03 23:02 | 26.06811 | -80.14503 | 40 ft | 3 kts | 241° |
| 2026-05-03 23:03 | 26.06791 | -80.14531 | 38 ft | 6 kts | 233° |
| 2026-05-03 23:03 | 26.06767 | -80.14583 | 39 ft | 9 kts | 260° |
| 2026-05-03 23:03 | 26.06766 | -80.14667 | 38 ft | 12 kts | 270° |
| 2026-05-03 23:03 | 26.06766 | -80.14771 | 39 ft | 14 kts | 270° |
| 2026-05-03 23:04 | 26.06764 | -80.14883 | 39 ft | 14 kts | 257° |
| 2026-05-03 23:04 | 26.06701 | -80.14949 | 39 ft | 13 kts | 242° |
| 2026-05-03 23:04 | 26.06695 | -80.15058 | 38 ft | 16 kts | 270° |
| 2026-05-03 23:04 | 26.06693 | -80.15197 | 37 ft | 20 kts | 268° |
| 2026-05-03 23:05 | 26.06695 | -80.15290 | 36 ft | 11 kts | 275° |
| 2026-05-03 23:05 | 26.06697 | -80.15392 | 34 ft | 16 kts | 271° |
| 2026-05-03 23:05 | 26.06698 | -80.15529 | 29 ft | 18 kts | 270° |
| 2026-05-03 23:05 | 26.06698 | -80.15596 | 27 ft | 0 kts | 269° |
| 2026-05-03 23:06 | 26.06698 | -80.15602 | 27 ft | 3 kts | 269° |
| 2026-05-03 23:06 | 26.06698 | -80.15642 | 30 ft | 4 kts | 270° |
| 2026-05-03 23:07 | 26.06698 | -80.15650 | 25 ft | 0 kts | 270° |
| 2026-05-03 23:07 | 26.06698 | -80.15658 | 25 ft | 0 kts | 270° |
| 2026-05-03 23:09 | 26.06698 | -80.15661 | 25 ft | 0 kts | 273° |
| 2026-05-03 23:09 | 26.06698 | -80.15663 | 29 ft | 0 kts | 274° |
| 2026-05-03 23:11 | 26.06699 | -80.15672 | 27 ft | 0 kts | 273° |
| 2026-05-03 23:12 | 26.06699 | -80.15674 | 27 ft | 1 kts | 272° |
| 2026-05-03 23:12 | 26.06699 | -80.15694 | 24 ft | 0 kts | 270° |
| 2026-05-03 23:12 | 26.06699 | -80.15715 | 23 ft | 5 kts | 270° |
| 2026-05-03 23:12 | 26.06699 | -80.15725 | 23 ft | 0 kts | 270° |
| 2026-05-03 23:13 | 26.06699 | -80.15734 | 23 ft | 3 kts | 271° |
| 2026-05-03 23:13 | 26.06699 | -80.15771 | 22 ft | 3 kts | 269° |
| 2026-05-03 23:13 | 26.06695 | -80.15795 | 21 ft | 2 kts | 252° |
| 2026-05-03 23:14 | 26.06683 | -80.15812 | 23 ft | 0 kts | 226° |
| 2026-05-03 23:14 | 26.06681 | -80.15814 | 22 ft | 2 kts | 221° |
| 2026-05-03 23:14 | 26.06679 | -80.15815 | 21 ft | 0 kts | 216° |
| 2026-05-03 23:35 | 26.06633 | -80.15820 | 19 ft | 14 kts | 171° |
| 2026-05-03 23:35 | 26.06593 | -80.15744 | 21 ft | 14 kts | 100° |
| 2026-05-03 23:35 | 26.06589 | -80.15553 | 30 ft | 59 kts | 90° |
| 2026-05-03 23:36 | 26.06587 | -80.14753 | 42 ft | 143 kts | 89° |
| 2026-05-03 23:36 | 26.06566 | -80.13506 | 538 ft | 168 kts | 89° |
| 2026-05-03 23:36 | 26.06639 | -80.12154 | 1357 ft | 183 kts | 79° |
| 2026-05-03 23:36 | 26.07020 | -80.10765 | 2209 ft | 191 kts | 66° |
| 2026-05-03 23:37 | 26.07573 | -80.09502 | 3080 ft | 173 kts | 59° |
| 2026-05-03 23:37 | 26.08198 | -80.08438 | 3802 ft | 159 kts | 51° |
| 2026-05-03 23:37 | 26.08981 | -80.07493 | 4076 ft | 176 kts | 37° |
| 2026-05-03 23:37 | 26.10092 | -80.06726 | 4240 ft | 201 kts | 20° |
| 2026-05-03 23:38 | 26.11476 | -80.06188 | 4554 ft | 221 kts | 12° |
| 2026-05-03 23:38 | 26.13025 | -80.05646 | 4934 ft | 245 kts | 15° |
| 2026-05-03 23:38 | 26.14754 | -80.05186 | 5380 ft | 266 kts | 3° |
| 2026-05-03 23:38 | 26.16635 | -80.05209 | 6065 ft | 274 kts | 348° |
| 2026-05-03 23:39 | 26.18477 | -80.05760 | 6899 ft | 276 kts | 337° |
| 2026-05-03 23:39 | 26.20278 | -80.06520 | 7759 ft | 278 kts | 329° |
| 2026-05-03 23:39 | 26.21862 | -80.07741 | 8586 ft | 277 kts | 313° |
| 2026-05-03 23:39 | 26.23050 | -80.09379 | 9400 ft | 277 kts | 297° |
| 2026-05-03 23:40 | 26.23839 | -80.11342 | 10197 ft | 279 kts | 288° |
| 2026-05-03 23:40 | 26.24570 | -80.13436 | 10509 ft | 301 kts | 288° |
| 2026-05-03 23:40 | 26.25371 | -80.15638 | 11051 ft | 311 kts | 292° |
| 2026-05-03 23:40 | 26.26492 | -80.17736 | 11762 ft | 317 kts | 299° |
| 2026-05-03 23:41 | 26.27684 | -80.19812 | 12487 ft | 320 kts | 299° |
| 2026-05-03 23:41 | 26.28889 | -80.21923 | 12882 ft | 323 kts | 298° |
| 2026-05-03 23:41 | 26.30093 | -80.24041 | 13016 ft | 323 kts | 298° |
| 2026-05-03 23:41 | 26.31305 | -80.26171 | 13607 ft | 326 kts | 298° |
| 2026-05-03 23:42 | 26.32523 | -80.28312 | 14307 ft | 328 kts | 298° |
| 2026-05-03 23:42 | 26.33748 | -80.30471 | 14995 ft | 330 kts | 298° |
| 2026-05-03 23:42 | 26.34978 | -80.32645 | 15649 ft | 333 kts | 297° |
| 2026-05-03 23:42 | 26.36219 | -80.34841 | 16307 ft | 335 kts | 297° |
| 2026-05-03 23:43 | 26.37465 | -80.37046 | 16962 ft | 338 kts | 297° |
| 2026-05-03 23:43 | 26.38724 | -80.39270 | 17610 ft | 340 kts | 297° |
| 2026-05-03 23:43 | 26.39995 | -80.41512 | 18257 ft | 343 kts | 297° |
| 2026-05-03 23:43 | 26.41274 | -80.43770 | 18823 ft | 346 kts | 296° |
| 2026-05-03 23:44 | 26.42560 | -80.46043 | 19406 ft | 348 kts | 296° |
| 2026-05-03 23:44 | 26.43854 | -80.48333 | 19987 ft | 350 kts | 296° |
| 2026-05-03 23:44 | 26.45158 | -80.50643 | 20574 ft | 352 kts | 296° |
| 2026-05-03 23:44 | 26.46476 | -80.52959 | 21146 ft | 356 kts | 298° |
| 2026-05-03 23:45 | 26.48117 | -80.55082 | 21702 ft | 368 kts | 311° |
| 2026-05-03 23:45 | 26.50237 | -80.56766 | 22248 ft | 383 kts | 324° |
| 2026-05-03 23:45 | 26.52766 | -80.57868 | 22783 ft | 398 kts | 336° |
| 2026-05-03 23:45 | 26.55438 | -80.58710 | 23005 ft | 400 kts | 336° |
| 2026-05-03 23:46 | 26.58115 | -80.59549 | 23044 ft | 400 kts | 336° |
| 2026-05-03 23:46 | 26.60795 | -80.60390 | 23045 ft | 400 kts | 336° |
| 2026-05-03 23:46 | 26.63474 | -80.61233 | 23046 ft | 399 kts | 336° |
| 2026-05-03 23:46 | 26.66114 | -80.62069 | 23044 ft | 399 kts | 336° |
| 2026-05-03 23:47 | 26.68786 | -80.62917 | 23044 ft | 399 kts | 336° |
| 2026-05-03 23:47 | 26.71463 | -80.63768 | 23045 ft | 399 kts | 336° |
| 2026-05-03 23:47 | 26.74139 | -80.64621 | 23046 ft | 399 kts | 336° |
| 2026-05-03 23:47 | 26.76812 | -80.65475 | 23050 ft | 399 kts | 335° |
| 2026-05-03 23:48 | 26.79490 | -80.66330 | 23047 ft | 399 kts | 335° |
| 2026-05-03 23:48 | 26.82158 | -80.67183 | 23045 ft | 399 kts | 335° |
| 2026-05-03 23:48 | 26.84834 | -80.68029 | 23049 ft | 400 kts | 336° |
| 2026-05-03 23:48 | 26.87516 | -80.68858 | 23052 ft | 400 kts | 336° |
| 2026-05-03 23:49 | 26.90186 | -80.69724 | 23052 ft | 399 kts | 335° |
| 2026-05-03 23:49 | 26.92828 | -80.70644 | 23048 ft | 397 kts | 333° |
| 2026-05-03 23:49 | 26.95451 | -80.71612 | 23051 ft | 397 kts | 333° |
| 2026-05-03 23:49 | 26.98067 | -80.72608 | 23056 ft | 396 kts | 332° |
| 2026-05-03 23:50 | 27.00643 | -80.73601 | 23054 ft | 396 kts | 332° |
| 2026-05-03 23:50 | 27.02401 | -80.74280 | 23055 ft | 396 kts | 332° |
| 2026-05-03 23:50 | 27.05856 | -80.75607 | 23054 ft | 396 kts | 332° |
| 2026-05-03 23:50 | 27.08468 | -80.76602 | 23059 ft | 396 kts | 332° |
| 2026-05-03 23:51 | 27.11078 | -80.77591 | 23056 ft | 396 kts | 332° |
| 2026-05-03 23:51 | 27.13694 | -80.78581 | 23053 ft | 396 kts | 332° |
| 2026-05-03 23:51 | 27.16305 | -80.79569 | 23057 ft | 396 kts | 332° |
| 2026-05-03 23:51 | 27.18916 | -80.80559 | 23057 ft | 396 kts | 332° |
| 2026-05-03 23:52 | 27.20682 | -80.81229 | 23057 ft | 396 kts | 332° |
| 2026-05-03 23:52 | 27.23252 | -80.82203 | 23054 ft | 396 kts | 332° |
| 2026-05-03 23:52 | 27.25884 | -80.83141 | 23055 ft | 401 kts | 338° |
| 2026-05-03 23:52 | 27.28717 | -80.83449 | 23054 ft | 418 kts | 355° |
| 2026-05-03 23:53 | 27.31614 | -80.82819 | 23053 ft | 434 kts | 13° |
| 2026-05-03 23:53 | 27.34322 | -80.81223 | 23062 ft | 445 kts | 27° |
| 2026-05-03 23:53 | 27.37023 | -80.79601 | 23049 ft | 433 kts | 11° |
| 2026-05-03 23:53 | 27.39919 | -80.79022 | 23057 ft | 417 kts | 353° |
| 2026-05-03 23:54 | 27.42766 | -80.79225 | 23056 ft | 406 kts | 342° |
| 2026-05-03 23:54 | 27.45494 | -80.79896 | 23052 ft | 397 kts | 334° |
| 2026-05-03 23:54 | 27.48083 | -80.80915 | 23060 ft | 392 kts | 330° |
| 2026-05-03 23:54 | 27.50584 | -80.81955 | 22964 ft | 373 kts | 330° |
| 2026-05-03 23:55 | 27.52975 | -80.82942 | 22430 ft | 360 kts | 330° |
| 2026-05-03 23:55 | 27.55300 | -80.83924 | 21744 ft | 353 kts | 329° |
| 2026-05-03 23:55 | 27.57454 | -80.85110 | 21040 ft | 337 kts | 319° |
| 2026-05-03 23:55 | 27.59392 | -80.86499 | 20333 ft | 332 kts | 319° |
| 2026-05-03 23:56 | 27.61326 | -80.87877 | 19753 ft | 326 kts | 319° |
| 2026-05-03 23:56 | 27.63233 | -80.89227 | 19142 ft | 321 kts | 319° |
| 2026-05-03 23:56 | 27.65121 | -80.90556 | 18517 ft | 318 kts | 319° |
| 2026-05-03 23:56 | 27.66986 | -80.91868 | 17823 ft | 315 kts | 320° |
| 2026-05-03 23:57 | 27.68835 | -80.93171 | 17124 ft | 312 kts | 320° |
| 2026-05-03 23:57 | 27.70664 | -80.94463 | 16440 ft | 309 kts | 320° |
| 2026-05-03 23:57 | 27.72483 | -80.95749 | 15773 ft | 307 kts | 320° |
| 2026-05-03 23:57 | 27.74282 | -80.97024 | 15128 ft | 304 kts | 321° |
| 2026-05-03 23:58 | 27.76066 | -80.98291 | 14489 ft | 302 kts | 321° |
| 2026-05-03 23:58 | 27.77844 | -80.99552 | 13859 ft | 300 kts | 322° |
| 2026-05-03 23:58 | 27.79607 | -81.00801 | 13195 ft | 298 kts | 322° |
| 2026-05-03 23:58 | 27.81353 | -81.02037 | 12554 ft | 295 kts | 322° |
| 2026-05-03 23:59 | 27.83091 | -81.03266 | 11929 ft | 292 kts | 322° |
| 2026-05-03 23:59 | 27.84803 | -81.04477 | 11327 ft | 289 kts | 322° |
| 2026-05-03 23:59 | 27.86497 | -81.05677 | 10728 ft | 286 kts | 323° |
| 2026-05-03 23:59 | 27.88153 | -81.06849 | 10143 ft | 283 kts | 323° |
| 2026-05-04 00:00 | 27.89836 | -81.08040 | 9536 ft | 280 kts | 323° |
| 2026-05-04 00:00 | 27.91456 | -81.09182 | 8911 ft | 278 kts | 327° |
| 2026-05-04 00:00 | 27.93229 | -81.10069 | 8249 ft | 279 kts | 335° |
| 2026-05-04 00:00 | 27.95026 | -81.10884 | 7632 ft | 278 kts | 335° |
| 2026-05-04 00:01 | 27.96811 | -81.11697 | 7045 ft | 276 kts | 336° |
| 2026-05-04 00:01 | 27.98584 | -81.12506 | 6480 ft | 274 kts | 337° |
| 2026-05-04 00:01 | 28.00348 | -81.13308 | 5859 ft | 272 kts | 338° |
| 2026-05-04 00:01 | 28.02102 | -81.14106 | 5272 ft | 271 kts | 338° |
| 2026-05-04 00:02 | 28.03840 | -81.14897 | 5161 ft | 271 kts | 338° |
| 2026-05-04 00:02 | 28.05605 | -81.15703 | 5160 ft | 273 kts | 338° |
| 2026-05-04 00:02 | 28.07365 | -81.16516 | 5039 ft | 270 kts | 337° |
| 2026-05-04 00:02 | 28.09027 | -81.17394 | 4918 ft | 256 kts | 334° |
| 2026-05-04 00:03 | 28.10556 | -81.18273 | 4805 ft | 237 kts | 333° |
| 2026-05-04 00:03 | 28.11966 | -81.19102 | 4668 ft | 222 kts | 333° |
| 2026-05-04 00:03 | 28.13327 | -81.19902 | 4544 ft | 220 kts | 334° |
| 2026-05-04 00:03 | 28.14671 | -81.20699 | 4421 ft | 213 kts | 333° |
| 2026-05-04 00:04 | 28.15943 | -81.21471 | 4295 ft | 205 kts | 333° |
| 2026-05-04 00:04 | 28.17194 | -81.22233 | 4173 ft | 203 kts | 333° |
| 2026-05-04 00:04 | 28.18438 | -81.22988 | 4052 ft | 203 kts | 334° |
| 2026-05-04 00:04 | 28.19683 | -81.23742 | 3929 ft | 202 kts | 334° |
| 2026-05-04 00:05 | 28.20919 | -81.24486 | 3774 ft | 202 kts | 334° |
| 2026-05-04 00:05 | 28.22152 | -81.25228 | 3476 ft | 198 kts | 335° |
| 2026-05-04 00:05 | 28.23347 | -81.25948 | 3191 ft | 189 kts | 335° |
| 2026-05-04 00:05 | 28.24445 | -81.26612 | 3086 ft | 173 kts | 335° |
| 2026-05-04 00:06 | 28.25474 | -81.27233 | 3025 ft | 162 kts | 336° |
| 2026-05-04 00:06 | 28.26439 | -81.27795 | 2998 ft | 151 kts | 343° |
| 2026-05-04 00:06 | 28.27438 | -81.27991 | 2884 ft | 143 kts | 1° |
| 2026-05-04 00:06 | 28.28421 | -81.28049 | 2739 ft | 140 kts | 3° |
| 2026-05-04 00:07 | 28.29388 | -81.28083 | 2548 ft | 137 kts | 4° |
| 2026-05-04 00:07 | 28.30333 | -81.28105 | 2362 ft | 135 kts | 5° |
| 2026-05-04 00:07 | 28.31273 | -81.28119 | 2181 ft | 135 kts | 4° |
| 2026-05-04 00:07 | 28.32210 | -81.28132 | 2001 ft | 134 kts | 4° |
| 2026-05-04 00:08 | 28.33136 | -81.28142 | 1824 ft | 133 kts | 5° |
| 2026-05-04 00:08 | 28.34060 | -81.28152 | 1644 ft | 133 kts | 5° |
| 2026-05-04 00:08 | 28.34986 | -81.28162 | 1470 ft | 132 kts | 5° |
| 2026-05-04 00:08 | 28.35895 | -81.28172 | 1290 ft | 131 kts | 5° |
| 2026-05-04 00:09 | 28.36806 | -81.28181 | 1114 ft | 131 kts | 5° |
| 2026-05-04 00:09 | 28.37705 | -81.28190 | 949 ft | 131 kts | 3° |
| 2026-05-04 00:09 | 28.38627 | -81.28208 | 761 ft | 130 kts | 2° |
| 2026-05-04 00:09 | 28.39539 | -81.28213 | 609 ft | 132 kts | 3° |
| 2026-05-04 00:10 | 28.40454 | -81.28233 | 433 ft | 134 kts | 5° |
| 2026-05-04 00:10 | 28.41371 | -81.28239 | 257 ft | 129 kts | 4° |
| 2026-05-04 00:10 | 28.42260 | -81.28240 | 121 ft | 124 kts | 4° |
| 2026-05-04 00:10 | 28.43010 | -81.28241 | 101 ft | 90 kts | 359° |
| 2026-05-04 00:11 | 28.43438 | -81.28250 | 101 ft | 12 kts | 339° |
| 2026-05-04 00:11 | 28.43517 | -81.28306 | 102 ft | 14 kts | 320° |
| 2026-05-04 00:11 | 28.43530 | -81.28323 | 101 ft | 0 kts | 305° |
| 2026-05-04 00:12 | 28.43532 | -81.28326 | 102 ft | 1 kts | 305° |
| 2026-05-04 00:12 | 28.43577 | -81.28366 | 104 ft | 17 kts | 337° |
| 2026-05-04 00:13 | 28.43665 | -81.28376 | 104 ft | 0 kts | 359° |
| 2026-05-04 00:13 | 28.43668 | -81.28376 | 104 ft | 3 kts | 359° |
| 2026-05-04 00:13 | 28.43752 | -81.28378 | 105 ft | 16 kts | 359° |
| 2026-05-04 00:14 | 28.43861 | -81.28391 | 107 ft | 16 kts | 322° |
| 2026-05-04 00:14 | 28.43875 | -81.28523 | 107 ft | 19 kts | 269° |
| 2026-05-04 00:14 | 28.43873 | -81.28682 | 107 ft | 21 kts | 272° |
| 2026-05-04 00:14 | 28.43873 | -81.28860 | 106 ft | 24 kts | 269° |
| 2026-05-04 00:15 | 28.43870 | -81.29061 | 106 ft | 26 kts | 270° |
| 2026-05-04 00:15 | 28.43865 | -81.29226 | 100 ft | 15 kts | 254° |
| 2026-05-04 00:15 | 28.43774 | -81.29264 | 101 ft | 16 kts | 180° |
| 2026-05-04 00:15 | 28.43659 | -81.29261 | 103 ft | 18 kts | 181° |
| 2026-05-04 00:16 | 28.43558 | -81.29294 | 104 ft | 14 kts | 242° |
| 2026-05-04 00:16 | 28.43547 | -81.29408 | 107 ft | 15 kts | 264° |
| 2026-05-04 00:16 | 28.43532 | -81.29562 | 105 ft | 27 kts | 269° |
| 2026-05-04 00:16 | 28.43546 | -81.29677 | 103 ft | 10 kts | 272° |
| 2026-05-04 00:17 | 28.43550 | -81.29763 | 104 ft | 12 kts | 276° |
| 2026-05-04 00:17 | 28.43617 | -81.29807 | 104 ft | 14 kts | 0° |
| 2026-05-04 00:17 | 28.43725 | -81.29812 | 103 ft | 17 kts | 348° |
| 2026-05-04 00:17 | 28.43839 | -81.29885 | 102 ft | 21 kts | 316° |
| 2026-05-04 00:18 | 28.43899 | -81.30040 | 102 ft | 23 kts | 274° |
| 2026-05-04 00:18 | 28.43908 | -81.30238 | 104 ft | 26 kts | 274° |
| 2026-05-04 00:18 | 28.43919 | -81.30461 | 99 ft | 31 kts | 274° |
| 2026-05-04 00:18 | 28.43933 | -81.30688 | 121 ft | 25 kts | 271° |
| 2026-05-04 00:19 | 28.43941 | -81.30847 | 122 ft | 3 kts | 275° |
| 2026-05-04 00:19 | 28.43944 | -81.30955 | 99 ft | 16 kts | 268° |
| 2026-05-04 00:19 | 28.43941 | -81.31130 | 114 ft | 28 kts | 267° |
| 2026-05-04 00:19 | 28.43929 | -81.31353 | 101 ft | 23 kts | 268° |
| 2026-05-04 00:20 | 28.43924 | -81.31541 | 103 ft | 25 kts | 269° |
| 2026-05-04 00:20 | 28.43886 | -81.31681 | 105 ft | 15 kts | 204° |
| 2026-05-04 00:20 | 28.43790 | -81.31655 | 105 ft | 15 kts | 146° |
| 2026-05-04 00:20 | 28.43705 | -81.31617 | 103 ft | 14 kts | 184° |
| 2026-05-04 00:21 | 28.43596 | -81.31640 | 102 ft | 15 kts | 187° |
| 2026-05-04 00:21 | 28.43534 | -81.31587 | 101 ft | 11 kts | 127° |
| 2026-05-04 00:21 | 28.43511 | -81.31561 | 102 ft | 2 kts | 145° |
| 2026-05-04 00:21 | 28.43501 | -81.31546 | 101 ft | 5 kts | 121° |
| 2026-05-04 00:22 | 28.43504 | -81.31506 | 102 ft | 2 kts | 71° |
| 2026-05-04 00:22 | 28.43505 | -81.31504 | 102 ft | 1 kts | 71° |
| 2026-05-04 00:22 | 28.43507 | -81.31494 | 102 ft | 1 kts | 73° |